sensor_id;sensor_type;location;lat;lon;timestamp;temperature;humidity
38464;DHT22;24243;51.956;5.902;2023-07-31T00:00:07;23.70;54.30
38464;DHT22;24243;51.956;5.902;2023-07-31T00:02:36;23.70;54.30
38464;DHT22;24243;51.956;5.902;2023-07-31T00:05:20;23.70;54.30
38464;DHT22;24243;51.956;5.902;2023-07-31T00:07:46;23.70;54.40
38464;DHT22;24243;51.956;5.902;2023-07-31T00:10:12;23.70;54.40
38464;DHT22;24243;51.956;5.902;2023-07-31T00:12:38;23.70;54.40
38464;DHT22;24243;51.956;5.902;2023-07-31T00:15:03;23.70;54.50
38464;DHT22;24243;51.956;5.902;2023-07-31T00:17:29;23.70;54.50
38464;DHT22;24243;51.956;5.902;2023-07-31T00:19:55;23.60;54.40
38464;DHT22;24243;51.956;5.902;2023-07-31T00:22:21;23.60;54.50
38464;DHT22;24243;51.956;5.902;2023-07-31T00:24:46;23.60;54.50
38464;DHT22;24243;51.956;5.902;2023-07-31T00:27:12;23.60;54.50
38464;DHT22;24243;51.956;5.902;2023-07-31T00:29:38;23.70;54.60
38464;DHT22;24243;51.956;5.902;2023-07-31T00:32:03;23.60;54.60
38464;DHT22;24243;51.956;5.902;2023-07-31T00:34:29;23.60;54.60
38464;DHT22;24243;51.956;5.902;2023-07-31T00:36:54;23.60;54.70
38464;DHT22;24243;51.956;5.902;2023-07-31T00:39:20;23.60;54.60
38464;DHT22;24243;51.956;5.902;2023-07-31T00:41:46;23.60;54.60
38464;DHT22;24243;51.956;5.902;2023-07-31T00:44:11;23.60;54.70
38464;DHT22;24243;51.956;5.902;2023-07-31T00:46:37;23.60;54.70
38464;DHT22;24243;51.956;5.902;2023-07-31T00:49:02;23.60;54.70
38464;DHT22;24243;51.956;5.902;2023-07-31T00:51:29;23.60;54.80
38464;DHT22;24243;51.956;5.902;2023-07-31T00:53:54;23.60;54.80
38464;DHT22;24243;51.956;5.902;2023-07-31T00:56:21;23.60;54.80
38464;DHT22;24243;51.956;5.902;2023-07-31T00:58:47;23.60;54.80
38464;DHT22;24243;51.956;5.902;2023-07-31T01:01:22;23.60;54.90
38464;DHT22;24243;51.956;5.902;2023-07-31T01:03:48;23.60;55.50
38464;DHT22;24243;51.956;5.902;2023-07-31T01:06:30;23.60;54.90
38464;DHT22;24243;51.956;5.902;2023-07-31T01:09:02;23.60;54.90
38464;DHT22;24243;51.956;5.902;2023-07-31T01:11:30;23.60;55.00
38464;DHT22;24243;51.956;5.902;2023-07-31T01:13:57;23.60;55.00
38464;DHT22;24243;51.956;5.902;2023-07-31T01:16:23;23.60;55.00
38464;DHT22;24243;51.956;5.902;2023-07-31T01:18:48;23.60;55.10
38464;DHT22;24243;51.956;5.902;2023-07-31T01:23:48;23.60;55.10
38464;DHT22;24243;51.956;5.902;2023-07-31T01:26:18;23.60;55.10
38464;DHT22;24243;51.956;5.902;2023-07-31T01:31:18;23.60;55.20
38464;DHT22;24243;51.956;5.902;2023-07-31T01:33:43;23.60;55.30
38464;DHT22;24243;51.956;5.902;2023-07-31T01:36:09;23.60;55.30
38464;DHT22;24243;51.956;5.902;2023-07-31T01:38:35;23.60;55.30
38464;DHT22;24243;51.956;5.902;2023-07-31T01:41:01;23.60;55.30
38464;DHT22;24243;51.956;5.902;2023-07-31T01:43:26;23.60;55.30
38464;DHT22;24243;51.956;5.902;2023-07-31T01:45:52;23.60;55.30
38464;DHT22;24243;51.956;5.902;2023-07-31T01:48:18;23.60;55.40
38464;DHT22;24243;51.956;5.902;2023-07-31T01:50:43;23.60;55.40
38464;DHT22;24243;51.956;5.902;2023-07-31T01:53:09;23.60;55.50
38464;DHT22;24243;51.956;5.902;2023-07-31T01:55:34;23.60;55.50
38464;DHT22;24243;51.956;5.902;2023-07-31T01:58:00;23.60;55.50
38464;DHT22;24243;51.956;5.902;2023-07-31T02:00:26;23.60;55.50
38464;DHT22;24243;51.956;5.902;2023-07-31T02:02:51;23.60;55.50
38464;DHT22;24243;51.956;5.902;2023-07-31T02:05:17;23.60;55.60
38464;DHT22;24243;51.956;5.902;2023-07-31T02:07:43;23.60;55.60
38464;DHT22;24243;51.956;5.902;2023-07-31T02:10:08;23.60;55.60
38464;DHT22;24243;51.956;5.902;2023-07-31T02:12:34;23.60;55.60
38464;DHT22;24243;51.956;5.902;2023-07-31T02:15:00;23.60;55.60
38464;DHT22;24243;51.956;5.902;2023-07-31T02:17:25;23.60;55.60
38464;DHT22;24243;51.956;5.902;2023-07-31T02:19:51;23.60;55.60
38464;DHT22;24243;51.956;5.902;2023-07-31T02:22:16;23.60;55.70
38464;DHT22;24243;51.956;5.902;2023-07-31T02:24:42;23.60;55.70
38464;DHT22;24243;51.956;5.902;2023-07-31T02:27:08;23.60;55.70
38464;DHT22;24243;51.956;5.902;2023-07-31T02:29:33;23.60;55.70
38464;DHT22;24243;51.956;5.902;2023-07-31T02:31:59;23.60;55.70
38464;DHT22;24243;51.956;5.902;2023-07-31T02:34:24;23.60;55.80
38464;DHT22;24243;51.956;5.902;2023-07-31T02:36:50;23.60;55.80
38464;DHT22;24243;51.956;5.902;2023-07-31T02:39:15;23.60;55.80
38464;DHT22;24243;51.956;5.902;2023-07-31T02:41:41;23.60;55.80
38464;DHT22;24243;51.956;5.902;2023-07-31T02:44:06;23.60;55.80
38464;DHT22;24243;51.956;5.902;2023-07-31T02:46:32;23.60;55.80
38464;DHT22;24243;51.956;5.902;2023-07-31T02:48:58;23.60;55.80
38464;DHT22;24243;51.956;5.902;2023-07-31T02:51:23;23.60;55.90
38464;DHT22;24243;51.956;5.902;2023-07-31T02:53:49;23.60;55.90
38464;DHT22;24243;51.956;5.902;2023-07-31T02:56:15;23.60;56.50
38464;DHT22;24243;51.956;5.902;2023-07-31T02:58:40;23.60;55.90
38464;DHT22;24243;51.956;5.902;2023-07-31T03:01:06;23.60;55.90
38464;DHT22;24243;51.956;5.902;2023-07-31T03:03:31;23.60;55.90
38464;DHT22;24243;51.956;5.902;2023-07-31T03:05:57;23.60;55.90
38464;DHT22;24243;51.956;5.902;2023-07-31T03:08:23;23.60;55.90
38464;DHT22;24243;51.956;5.902;2023-07-31T03:10:48;23.60;56.00
38464;DHT22;24243;51.956;5.902;2023-07-31T03:13:14;23.60;56.00
38464;DHT22;24243;51.956;5.902;2023-07-31T03:15:41;23.60;56.00
38464;DHT22;24243;51.956;5.902;2023-07-31T03:18:07;23.60;56.00
38464;DHT22;24243;51.956;5.902;2023-07-31T03:20:32;23.50;55.90
38464;DHT22;24243;51.956;5.902;2023-07-31T03:22:58;23.50;55.90
38464;DHT22;24243;51.956;5.902;2023-07-31T03:25:24;23.50;55.90
38464;DHT22;24243;51.956;5.902;2023-07-31T03:27:49;23.50;55.90
38464;DHT22;24243;51.956;5.902;2023-07-31T03:30:15;23.50;56.00
38464;DHT22;24243;51.956;5.902;2023-07-31T03:32:40;23.50;56.00
38464;DHT22;24243;51.956;5.902;2023-07-31T03:35:06;23.50;56.00
38464;DHT22;24243;51.956;5.902;2023-07-31T03:37:32;23.50;56.00
38464;DHT22;24243;51.956;5.902;2023-07-31T03:39:57;23.50;56.00
38464;DHT22;24243;51.956;5.902;2023-07-31T03:42:23;23.50;56.00
38464;DHT22;24243;51.956;5.902;2023-07-31T03:44:48;23.50;56.00
38464;DHT22;24243;51.956;5.902;2023-07-31T03:47:14;23.50;56.00
38464;DHT22;24243;51.956;5.902;2023-07-31T03:49:39;23.50;56.00
38464;DHT22;24243;51.956;5.902;2023-07-31T03:52:05;23.60;56.00
38464;DHT22;24243;51.956;5.902;2023-07-31T03:54:31;23.50;56.00
38464;DHT22;24243;51.956;5.902;2023-07-31T03:56:56;23.50;56.00
38464;DHT22;24243;51.956;5.902;2023-07-31T03:59:22;23.50;56.00
38464;DHT22;24243;51.956;5.902;2023-07-31T04:01:48;23.50;56.00
38464;DHT22;24243;51.956;5.902;2023-07-31T04:04:13;23.50;56.00
38464;DHT22;24243;51.956;5.902;2023-07-31T04:06:39;23.50;56.00
38464;DHT22;24243;51.956;5.902;2023-07-31T04:09:04;23.50;56.00
38464;DHT22;24243;51.956;5.902;2023-07-31T04:11:30;23.50;55.90
38464;DHT22;24243;51.956;5.902;2023-07-31T04:13:55;23.50;56.00
38464;DHT22;24243;51.956;5.902;2023-07-31T04:16:21;23.50;55.90
38464;DHT22;24243;51.956;5.902;2023-07-31T04:18:47;23.50;55.90
38464;DHT22;24243;51.956;5.902;2023-07-31T04:21:12;23.50;55.90
38464;DHT22;24243;51.956;5.902;2023-07-31T04:23:38;23.60;55.90
38464;DHT22;24243;51.956;5.902;2023-07-31T04:26:03;23.60;55.90
38464;DHT22;24243;51.956;5.902;2023-07-31T04:28:29;23.60;55.90
38464;DHT22;24243;51.956;5.902;2023-07-31T04:30:57;23.60;55.90
38464;DHT22;24243;51.956;5.902;2023-07-31T04:33:22;23.60;55.80
38464;DHT22;24243;51.956;5.902;2023-07-31T04:35:49;23.60;55.90
38464;DHT22;24243;51.956;5.902;2023-07-31T04:38:18;23.60;55.80
38464;DHT22;24243;51.956;5.902;2023-07-31T04:40:43;23.60;55.80
38464;DHT22;24243;51.956;5.902;2023-07-31T04:43:09;23.60;55.80
38464;DHT22;24243;51.956;5.902;2023-07-31T04:45:35;23.60;55.80
38464;DHT22;24243;51.956;5.902;2023-07-31T04:48:00;23.60;55.80
38464;DHT22;24243;51.956;5.902;2023-07-31T04:50:26;23.60;55.80
38464;DHT22;24243;51.956;5.902;2023-07-31T04:52:52;23.60;55.80
38464;DHT22;24243;51.956;5.902;2023-07-31T04:55:17;23.60;55.80
38464;DHT22;24243;51.956;5.902;2023-07-31T04:57:43;23.60;55.80
38464;DHT22;24243;51.956;5.902;2023-07-31T05:00:08;23.70;55.80
38464;DHT22;24243;51.956;5.902;2023-07-31T05:02:34;23.70;55.80
38464;DHT22;24243;51.956;5.902;2023-07-31T05:05:00;23.60;55.80
38464;DHT22;24243;51.956;5.902;2023-07-31T05:07:25;23.70;55.80
38464;DHT22;24243;51.956;5.902;2023-07-31T05:09:51;23.60;55.80
38464;DHT22;24243;51.956;5.902;2023-07-31T05:12:16;23.60;55.80
38464;DHT22;24243;51.956;5.902;2023-07-31T05:14:42;23.60;55.80
38464;DHT22;24243;51.956;5.902;2023-07-31T05:17:07;23.70;55.80
38464;DHT22;24243;51.956;5.902;2023-07-31T05:19:33;23.70;55.80
38464;DHT22;24243;51.956;5.902;2023-07-31T05:21:59;23.70;55.80
38464;DHT22;24243;51.956;5.902;2023-07-31T05:24:24;23.70;55.80
38464;DHT22;24243;51.956;5.902;2023-07-31T05:26:50;23.70;55.80
38464;DHT22;24243;51.956;5.902;2023-07-31T05:29:15;23.70;55.80
38464;DHT22;24243;51.956;5.902;2023-07-31T05:31:42;23.70;55.80
38464;DHT22;24243;51.956;5.902;2023-07-31T05:34:07;23.70;55.80
38464;DHT22;24243;51.956;5.902;2023-07-31T05:36:33;23.70;55.80
38464;DHT22;24243;51.956;5.902;2023-07-31T05:38:58;23.70;55.70
38464;DHT22;24243;51.956;5.902;2023-07-31T05:41:24;23.60;55.70
38464;DHT22;24243;51.956;5.902;2023-07-31T05:43:49;23.70;55.70
38464;DHT22;24243;51.956;5.902;2023-07-31T05:46:16;23.70;55.70
38464;DHT22;24243;51.956;5.902;2023-07-31T05:48:42;23.70;55.70
38464;DHT22;24243;51.956;5.902;2023-07-31T05:51:07;23.70;55.70
38464;DHT22;24243;51.956;5.902;2023-07-31T05:53:33;23.70;55.70
38464;DHT22;24243;51.956;5.902;2023-07-31T05:56:01;23.70;55.70
38464;DHT22;24243;51.956;5.902;2023-07-31T05:58:26;23.70;55.70
38464;DHT22;24243;51.956;5.902;2023-07-31T06:00:52;23.70;55.70
38464;DHT22;24243;51.956;5.902;2023-07-31T06:03:17;23.70;55.70
38464;DHT22;24243;51.956;5.902;2023-07-31T06:05:43;23.70;55.70
38464;DHT22;24243;51.956;5.902;2023-07-31T06:08:08;23.70;55.70
38464;DHT22;24243;51.956;5.902;2023-07-31T06:10:34;23.70;55.70
38464;DHT22;24243;51.956;5.902;2023-07-31T06:13:00;23.70;55.70
38464;DHT22;24243;51.956;5.902;2023-07-31T06:15:25;23.70;55.70
38464;DHT22;24243;51.956;5.902;2023-07-31T06:17:51;23.70;55.70
38464;DHT22;24243;51.956;5.902;2023-07-31T06:20:17;23.70;55.70
38464;DHT22;24243;51.956;5.902;2023-07-31T06:22:42;23.70;55.60
38464;DHT22;24243;51.956;5.902;2023-07-31T06:25:08;23.70;55.60
38464;DHT22;24243;51.956;5.902;2023-07-31T06:27:33;23.70;55.60
38464;DHT22;24243;51.956;5.902;2023-07-31T06:29:59;23.70;55.60
38464;DHT22;24243;51.956;5.902;2023-07-31T06:32:25;23.70;55.60
38464;DHT22;24243;51.956;5.902;2023-07-31T06:34:50;23.70;55.60
38464;DHT22;24243;51.956;5.902;2023-07-31T06:37:16;23.70;55.60
38464;DHT22;24243;51.956;5.902;2023-07-31T06:39:41;23.70;55.60
38464;DHT22;24243;51.956;5.902;2023-07-31T06:42:07;23.70;55.60
38464;DHT22;24243;51.956;5.902;2023-07-31T06:44:33;23.70;55.60
38464;DHT22;24243;51.956;5.902;2023-07-31T06:46:58;23.70;55.60
38464;DHT22;24243;51.956;5.902;2023-07-31T06:49:24;23.70;55.60
38464;DHT22;24243;51.956;5.902;2023-07-31T06:51:50;23.70;55.60
38464;DHT22;24243;51.956;5.902;2023-07-31T06:54:15;23.70;55.60
38464;DHT22;24243;51.956;5.902;2023-07-31T06:56:41;23.70;55.60
38464;DHT22;24243;51.956;5.902;2023-07-31T06:59:06;23.70;55.60
38464;DHT22;24243;51.956;5.902;2023-07-31T07:01:32;23.70;55.50
38464;DHT22;24243;51.956;5.902;2023-07-31T07:03:58;23.70;55.60
38464;DHT22;24243;51.956;5.902;2023-07-31T07:06:23;23.70;55.60
38464;DHT22;24243;51.956;5.902;2023-07-31T07:08:49;23.70;55.60
38464;DHT22;24243;51.956;5.902;2023-07-31T07:11:14;23.70;55.60
38464;DHT22;24243;51.956;5.902;2023-07-31T07:13:40;23.70;55.60
38464;DHT22;24243;51.956;5.902;2023-07-31T07:16:05;23.70;55.60
38464;DHT22;24243;51.956;5.902;2023-07-31T07:18:31;23.70;55.60
38464;DHT22;24243;51.956;5.902;2023-07-31T07:20:57;23.70;55.60
38464;DHT22;24243;51.956;5.902;2023-07-31T07:23:23;23.70;55.60
38464;DHT22;24243;51.956;5.902;2023-07-31T07:25:49;23.80;55.60
38464;DHT22;24243;51.956;5.902;2023-07-31T07:28:14;23.80;55.60
38464;DHT22;24243;51.956;5.902;2023-07-31T07:30:40;23.70;55.50
38464;DHT22;24243;51.956;5.902;2023-07-31T07:33:06;23.80;55.60
38464;DHT22;24243;51.956;5.902;2023-07-31T07:35:35;23.80;55.60
38464;DHT22;24243;51.956;5.902;2023-07-31T07:38:02;23.80;55.60
38464;DHT22;24243;51.956;5.902;2023-07-31T07:40:28;23.80;55.60
38464;DHT22;24243;51.956;5.902;2023-07-31T07:42:53;23.80;55.50
38464;DHT22;24243;51.956;5.902;2023-07-31T07:45:19;23.80;55.60
38464;DHT22;24243;51.956;5.902;2023-07-31T07:47:45;23.80;55.50
38464;DHT22;24243;51.956;5.902;2023-07-31T07:50:10;23.80;55.50
38464;DHT22;24243;51.956;5.902;2023-07-31T07:52:36;23.80;55.50
38464;DHT22;24243;51.956;5.902;2023-07-31T07:55:01;23.80;55.50
38464;DHT22;24243;51.956;5.902;2023-07-31T07:57:28;23.80;55.50
38464;DHT22;24243;51.956;5.902;2023-07-31T07:59:54;23.80;55.50
38464;DHT22;24243;51.956;5.902;2023-07-31T08:02:19;23.80;55.50
38464;DHT22;24243;51.956;5.902;2023-07-31T08:04:45;23.80;55.50
38464;DHT22;24243;51.956;5.902;2023-07-31T08:07:11;23.90;55.60
38464;DHT22;24243;51.956;5.902;2023-07-31T08:09:37;23.90;55.60
38464;DHT22;24243;51.956;5.902;2023-07-31T08:12:02;23.90;55.60
38464;DHT22;24243;51.956;5.902;2023-07-31T08:14:29;23.80;55.60
38464;DHT22;24243;51.956;5.902;2023-07-31T08:16:55;23.80;55.60
38464;DHT22;24243;51.956;5.902;2023-07-31T08:19:21;23.80;55.60
38464;DHT22;24243;51.956;5.902;2023-07-31T08:21:46;23.90;55.60
38464;DHT22;24243;51.956;5.902;2023-07-31T08:24:12;23.80;55.60
38464;DHT22;24243;51.956;5.902;2023-07-31T08:26:37;23.90;55.60
38464;DHT22;24243;51.956;5.902;2023-07-31T08:29:03;23.90;55.60
38464;DHT22;24243;51.956;5.902;2023-07-31T08:31:28;23.90;55.60
38464;DHT22;24243;51.956;5.902;2023-07-31T08:33:54;23.90;55.70
38464;DHT22;24243;51.956;5.902;2023-07-31T08:36:20;23.90;55.70
38464;DHT22;24243;51.956;5.902;2023-07-31T08:38:45;23.90;55.60
38464;DHT22;24243;51.956;5.902;2023-07-31T08:41:11;23.90;55.70
38464;DHT22;24243;51.956;5.902;2023-07-31T08:43:38;23.90;55.70
38464;DHT22;24243;51.956;5.902;2023-07-31T08:46:04;23.90;55.70
38464;DHT22;24243;51.956;5.902;2023-07-31T08:48:30;23.90;55.70
38464;DHT22;24243;51.956;5.902;2023-07-31T08:50:56;23.90;55.70
38464;DHT22;24243;51.956;5.902;2023-07-31T08:53:22;23.90;55.70
38464;DHT22;24243;51.956;5.902;2023-07-31T08:55:48;23.90;55.70
38464;DHT22;24243;51.956;5.902;2023-07-31T08:58:14;23.90;55.70
38464;DHT22;24243;51.956;5.902;2023-07-31T09:00:41;23.90;55.70
38464;DHT22;24243;51.956;5.902;2023-07-31T09:03:10;23.90;55.70
38464;DHT22;24243;51.956;5.902;2023-07-31T09:05:37;24.00;55.80
38464;DHT22;24243;51.956;5.902;2023-07-31T09:08:05;23.90;55.80
38464;DHT22;24243;51.956;5.902;2023-07-31T09:10:31;24.00;55.80
38464;DHT22;24243;51.956;5.902;2023-07-31T09:12:56;24.00;55.80
38464;DHT22;24243;51.956;5.902;2023-07-31T09:15:23;24.00;55.80
38464;DHT22;24243;51.956;5.902;2023-07-31T09:17:50;24.00;55.80
38464;DHT22;24243;51.956;5.902;2023-07-31T09:20:23;24.00;55.80
38464;DHT22;24243;51.956;5.902;2023-07-31T09:22:49;24.00;55.80
38464;DHT22;24243;51.956;5.902;2023-07-31T09:27:52;24.00;55.80
38464;DHT22;24243;51.956;5.902;2023-07-31T09:30:18;24.00;55.80
38464;DHT22;24243;51.956;5.902;2023-07-31T09:32:44;24.00;55.80
38464;DHT22;24243;51.956;5.902;2023-07-31T09:37:52;24.00;55.80
38464;DHT22;24243;51.956;5.902;2023-07-31T09:40:37;24.00;56.50
38464;DHT22;24243;51.956;5.902;2023-07-31T09:43:06;24.00;55.80
38464;DHT22;24243;51.956;5.902;2023-07-31T09:45:36;24.00;55.80
38464;DHT22;24243;51.956;5.902;2023-07-31T09:48:02;24.00;55.80
38464;DHT22;24243;51.956;5.902;2023-07-31T09:50:28;24.00;55.90
38464;DHT22;24243;51.956;5.902;2023-07-31T09:52:54;24.00;55.90
38464;DHT22;24243;51.956;5.902;2023-07-31T09:55:20;24.00;55.90
38464;DHT22;24243;51.956;5.902;2023-07-31T09:57:47;24.00;55.90
38464;DHT22;24243;51.956;5.902;2023-07-31T10:00:14;24.00;55.90
38464;DHT22;24243;51.956;5.902;2023-07-31T10:02:40;24.00;55.90
38464;DHT22;24243;51.956;5.902;2023-07-31T10:05:06;24.00;55.90
38464;DHT22;24243;51.956;5.902;2023-07-31T10:07:42;24.00;55.90
38464;DHT22;24243;51.956;5.902;2023-07-31T10:10:17;24.00;55.90
38464;DHT22;24243;51.956;5.902;2023-07-31T10:12:45;24.00;55.80
38464;DHT22;24243;51.956;5.902;2023-07-31T10:15:11;24.00;55.90
38464;DHT22;24243;51.956;5.902;2023-07-31T10:17:36;24.00;55.90
38464;DHT22;24243;51.956;5.902;2023-07-31T10:20:03;24.10;56.00
38464;DHT22;24243;51.956;5.902;2023-07-31T10:22:30;24.10;56.00
38464;DHT22;24243;51.956;5.902;2023-07-31T10:24:57;24.10;56.00
38464;DHT22;24243;51.956;5.902;2023-07-31T10:27:23;24.10;56.00
38464;DHT22;24243;51.956;5.902;2023-07-31T10:29:48;24.10;56.00
38464;DHT22;24243;51.956;5.902;2023-07-31T10:32:15;24.10;56.00
38464;DHT22;24243;51.956;5.902;2023-07-31T10:34:42;24.10;56.00
38464;DHT22;24243;51.956;5.902;2023-07-31T10:37:24;24.10;56.00
38464;DHT22;24243;51.956;5.902;2023-07-31T10:40:00;24.10;56.00
38464;DHT22;24243;51.956;5.902;2023-07-31T10:44:58;24.10;56.10
38464;DHT22;24243;51.956;5.902;2023-07-31T10:47:24;24.10;56.10
38464;DHT22;24243;51.956;5.902;2023-07-31T10:49:50;24.20;56.10
38464;DHT22;24243;51.956;5.902;2023-07-31T10:52:19;24.20;56.20
38464;DHT22;24243;51.956;5.902;2023-07-31T10:54:48;24.20;56.20
38464;DHT22;24243;51.956;5.902;2023-07-31T10:57:21;24.20;56.20
38464;DHT22;24243;51.956;5.902;2023-07-31T10:59:47;24.20;56.20
38464;DHT22;24243;51.956;5.902;2023-07-31T11:02:27;24.20;56.10
38464;DHT22;24243;51.956;5.902;2023-07-31T11:05:06;24.20;56.20
38464;DHT22;24243;51.956;5.902;2023-07-31T11:07:48;24.20;56.20
38464;DHT22;24243;51.956;5.902;2023-07-31T11:10:20;24.20;56.20
38464;DHT22;24243;51.956;5.902;2023-07-31T11:12:48;24.20;56.20
38464;DHT22;24243;51.956;5.902;2023-07-31T11:15:15;24.20;56.20
38464;DHT22;24243;51.956;5.902;2023-07-31T11:17:40;24.20;56.20
38464;DHT22;24243;51.956;5.902;2023-07-31T11:20:06;24.20;56.20
38464;DHT22;24243;51.956;5.902;2023-07-31T11:22:35;24.20;56.20
38464;DHT22;24243;51.956;5.902;2023-07-31T11:25:02;24.20;56.20
38464;DHT22;24243;51.956;5.902;2023-07-31T11:27:28;24.20;56.20
38464;DHT22;24243;51.956;5.902;2023-07-31T11:29:59;24.20;56.30
38464;DHT22;24243;51.956;5.902;2023-07-31T11:32:25;24.20;56.30
38464;DHT22;24243;51.956;5.902;2023-07-31T11:34:54;24.20;56.20
38464;DHT22;24243;51.956;5.902;2023-07-31T11:37:20;24.20;56.30
38464;DHT22;24243;51.956;5.902;2023-07-31T11:40:01;24.20;56.30
38464;DHT22;24243;51.956;5.902;2023-07-31T11:42:27;24.20;56.20
38464;DHT22;24243;51.956;5.902;2023-07-31T11:44:52;24.20;56.30
38464;DHT22;24243;51.956;5.902;2023-07-31T11:47:18;24.20;56.30
38464;DHT22;24243;51.956;5.902;2023-07-31T11:49:44;24.20;56.30
38464;DHT22;24243;51.956;5.902;2023-07-31T11:52:10;24.20;56.30
38464;DHT22;24243;51.956;5.902;2023-07-31T11:54:36;24.20;56.30
38464;DHT22;24243;51.956;5.902;2023-07-31T11:57:02;24.20;56.30
38464;DHT22;24243;51.956;5.902;2023-07-31T11:59:28;24.20;56.30
38464;DHT22;24243;51.956;5.902;2023-07-31T12:01:54;24.20;56.30
38464;DHT22;24243;51.956;5.902;2023-07-31T12:04:19;24.20;56.90
38464;DHT22;24243;51.956;5.902;2023-07-31T12:06:47;24.30;56.40
38464;DHT22;24243;51.956;5.902;2023-07-31T12:09:14;24.20;56.30
38464;DHT22;24243;51.956;5.902;2023-07-31T12:11:44;24.30;56.40
38464;DHT22;24243;51.956;5.902;2023-07-31T12:14:26;24.30;56.40
38464;DHT22;24243;51.956;5.902;2023-07-31T12:16:55;24.30;56.40
38464;DHT22;24243;51.956;5.902;2023-07-31T12:19:21;24.30;56.40
38464;DHT22;24243;51.956;5.902;2023-07-31T12:21:47;24.30;56.40
38464;DHT22;24243;51.956;5.902;2023-07-31T12:24:12;24.30;56.40
38464;DHT22;24243;51.956;5.902;2023-07-31T12:26:38;24.30;56.40
38464;DHT22;24243;51.956;5.902;2023-07-31T12:29:05;24.30;56.50
38464;DHT22;24243;51.956;5.902;2023-07-31T12:31:33;24.30;56.50
38464;DHT22;24243;51.956;5.902;2023-07-31T12:33:58;24.30;56.50
38464;DHT22;24243;51.956;5.902;2023-07-31T12:36:24;24.30;56.50
38464;DHT22;24243;51.956;5.902;2023-07-31T12:38:50;24.20;56.50
38464;DHT22;24243;51.956;5.902;2023-07-31T12:41:16;24.30;56.60
38464;DHT22;24243;51.956;5.902;2023-07-31T12:43:42;24.30;56.60
38464;DHT22;24243;51.956;5.902;2023-07-31T12:46:08;24.30;56.60
38464;DHT22;24243;51.956;5.902;2023-07-31T12:48:34;24.30;56.60
38464;DHT22;24243;51.956;5.902;2023-07-31T12:51:00;24.20;56.60
38464;DHT22;24243;51.956;5.902;2023-07-31T12:53:25;24.30;56.60
38464;DHT22;24243;51.956;5.902;2023-07-31T12:55:51;24.20;56.60
38464;DHT22;24243;51.956;5.902;2023-07-31T12:58:16;24.20;56.60
38464;DHT22;24243;51.956;5.902;2023-07-31T13:00:42;24.20;56.60
38464;DHT22;24243;51.956;5.902;2023-07-31T13:03:08;24.20;56.60
38464;DHT22;24243;51.956;5.902;2023-07-31T13:05:33;24.20;56.70
38464;DHT22;24243;51.956;5.902;2023-07-31T13:07:59;24.20;56.70
38464;DHT22;24243;51.956;5.902;2023-07-31T13:10:24;24.20;56.70
38464;DHT22;24243;51.956;5.902;2023-07-31T13:12:52;24.20;56.70
38464;DHT22;24243;51.956;5.902;2023-07-31T13:15:17;24.20;56.70
38464;DHT22;24243;51.956;5.902;2023-07-31T13:17:43;24.20;56.70
38464;DHT22;24243;51.956;5.902;2023-07-31T13:20:09;24.20;56.70
38464;DHT22;24243;51.956;5.902;2023-07-31T13:22:34;24.20;56.70
38464;DHT22;24243;51.956;5.902;2023-07-31T13:25:00;24.30;56.70
38464;DHT22;24243;51.956;5.902;2023-07-31T13:27:25;24.30;56.80
38464;DHT22;24243;51.956;5.902;2023-07-31T13:29:51;24.30;56.80
38464;DHT22;24243;51.956;5.902;2023-07-31T13:32:17;24.30;56.80
38464;DHT22;24243;51.956;5.902;2023-07-31T13:34:43;24.30;56.80
38464;DHT22;24243;51.956;5.902;2023-07-31T13:37:09;24.30;56.80
38464;DHT22;24243;51.956;5.902;2023-07-31T13:39:35;24.30;56.80
38464;DHT22;24243;51.956;5.902;2023-07-31T13:42:02;24.30;56.80
38464;DHT22;24243;51.956;5.902;2023-07-31T13:44:28;24.30;56.80
38464;DHT22;24243;51.956;5.902;2023-07-31T13:46:53;24.30;56.80
38464;DHT22;24243;51.956;5.902;2023-07-31T13:49:19;24.30;56.80
38464;DHT22;24243;51.956;5.902;2023-07-31T13:51:44;24.30;56.90
38464;DHT22;24243;51.956;5.902;2023-07-31T13:54:11;24.30;56.90
38464;DHT22;24243;51.956;5.902;2023-07-31T13:56:37;24.30;56.90
38464;DHT22;24243;51.956;5.902;2023-07-31T13:59:02;24.30;56.90
38464;DHT22;24243;51.956;5.902;2023-07-31T14:01:28;24.30;57.00
38464;DHT22;24243;51.956;5.902;2023-07-31T14:03:54;24.30;57.00
38464;DHT22;24243;51.956;5.902;2023-07-31T14:06:19;24.30;57.00
38464;DHT22;24243;51.956;5.902;2023-07-31T14:08:45;24.30;57.00
38464;DHT22;24243;51.956;5.902;2023-07-31T14:11:10;24.30;57.00
38464;DHT22;24243;51.956;5.902;2023-07-31T14:13:36;24.30;57.00
38464;DHT22;24243;51.956;5.902;2023-07-31T14:16:02;24.30;57.00
38464;DHT22;24243;51.956;5.902;2023-07-31T14:18:27;24.30;57.00
38464;DHT22;24243;51.956;5.902;2023-07-31T14:20:53;24.30;57.00
38464;DHT22;24243;51.956;5.902;2023-07-31T14:23:18;24.30;57.00
38464;DHT22;24243;51.956;5.902;2023-07-31T14:25:45;24.30;57.00
38464;DHT22;24243;51.956;5.902;2023-07-31T14:28:11;24.30;57.00
38464;DHT22;24243;51.956;5.902;2023-07-31T14:30:36;24.30;57.00
38464;DHT22;24243;51.956;5.902;2023-07-31T14:33:02;24.30;57.00
38464;DHT22;24243;51.956;5.902;2023-07-31T14:35:28;24.30;57.00
38464;DHT22;24243;51.956;5.902;2023-07-31T14:37:53;24.30;57.10
38464;DHT22;24243;51.956;5.902;2023-07-31T14:40:19;24.30;57.00
38464;DHT22;24243;51.956;5.902;2023-07-31T14:42:44;24.30;57.00
38464;DHT22;24243;51.956;5.902;2023-07-31T14:45:10;24.30;57.00
38464;DHT22;24243;51.956;5.902;2023-07-31T14:47:36;24.30;57.10
38464;DHT22;24243;51.956;5.902;2023-07-31T14:50:02;24.30;57.10
38464;DHT22;24243;51.956;5.902;2023-07-31T14:52:28;24.30;57.10
38464;DHT22;24243;51.956;5.902;2023-07-31T14:54:54;24.30;57.10
38464;DHT22;24243;51.956;5.902;2023-07-31T14:57:19;24.30;57.10
38464;DHT22;24243;51.956;5.902;2023-07-31T14:59:45;24.30;57.10
38464;DHT22;24243;51.956;5.902;2023-07-31T15:02:11;24.30;57.10
38464;DHT22;24243;51.956;5.902;2023-07-31T15:04:37;24.30;57.10
38464;DHT22;24243;51.956;5.902;2023-07-31T15:07:03;24.30;57.10
38464;DHT22;24243;51.956;5.902;2023-07-31T15:09:28;24.30;57.10
38464;DHT22;24243;51.956;5.902;2023-07-31T15:11:55;24.30;57.10
38464;DHT22;24243;51.956;5.902;2023-07-31T15:14:20;24.30;57.20
38464;DHT22;24243;51.956;5.902;2023-07-31T15:16:46;24.30;57.20
38464;DHT22;24243;51.956;5.902;2023-07-31T15:19:12;24.30;57.20
38464;DHT22;24243;51.956;5.902;2023-07-31T15:21:37;24.30;57.20
38464;DHT22;24243;51.956;5.902;2023-07-31T15:24:03;24.30;57.20
38464;DHT22;24243;51.956;5.902;2023-07-31T15:26:29;24.30;57.20
38464;DHT22;24243;51.956;5.902;2023-07-31T15:29:05;24.30;57.20
38464;DHT22;24243;51.956;5.902;2023-07-31T15:31:34;24.30;57.20
38464;DHT22;24243;51.956;5.902;2023-07-31T15:33:59;24.30;57.20
38464;DHT22;24243;51.956;5.902;2023-07-31T15:36:25;24.30;57.20